createdAt,value
2018-06-25T00:00:18.159Z,60.1075
2018-06-25T00:01:23.580Z,60.6122
2018-06-25T00:02:29.028Z,58.6859
2018-06-25T00:03:34.447Z,58.9369
2018-06-25T00:04:39.617Z,59.439
2018-06-25T00:05:44.223Z,59.941
2018-06-25T00:06:49.458Z,59.941
2018-06-25T00:07:54.910Z,60.1075
2018-06-25T00:09:00.343Z,60.3611
2018-06-25T00:10:05.865Z,59.69
2018-06-25T00:11:10.735Z,60.6122
2018-06-25T00:12:16.180Z,60.1075
2018-06-25T00:13:21.029Z,59.188
2018-06-25T00:14:25.653Z,60.3611
2018-06-25T00:15:31.333Z,60.8632
2018-06-25T00:16:36.772Z,60.8632
2018-06-25T00:17:41.934Z,60.6122
2018-06-25T00:18:47.053Z,59.941
2018-06-25T00:19:52.221Z,60.8632
2018-06-25T00:20:57.661Z,60.6122
2018-06-25T00:22:02.534Z,60.6122
2018-06-25T00:23:07.686Z,60.6122
2018-06-25T00:24:13.130Z,60.8632
2018-06-25T00:25:17.974Z,61.1142
2018-06-25T00:26:23.120Z,60.6122
2018-06-25T00:27:28.983Z,60.8632
2018-06-25T00:28:34.427Z,60.3611
2018-06-25T00:29:39.595Z,60.8632
2018-06-25T00:30:45.011Z,60.8632
2018-06-25T00:31:50.491Z,60.3611
2018-06-25T00:32:55.698Z,60.3611
2018-06-25T00:34:01.500Z,60.8632
2018-06-25T00:35:06.388Z,60.3611
2018-06-25T00:36:11.270Z,60.3611
2018-06-25T00:37:16.688Z,60.3611
2018-06-25T00:38:21.872Z,60.6122
2018-06-25T00:39:27.520Z,60.3611
2018-06-25T00:40:32.678Z,60.6122
2018-06-25T00:41:38.121Z,60.1075
2018-06-25T00:42:43.093Z,60.3611
2018-06-25T00:43:48.239Z,59.69
2018-06-25T00:44:53.406Z,60.6122
2018-06-25T00:45:58.897Z,60.8632
2018-06-25T00:47:04.353Z,59.941
2018-06-25T00:48:09.224Z,61.1142
2018-06-25T00:49:14.920Z,60.6122
2018-06-25T00:50:20.083Z,61.1142
2018-06-25T00:51:24.968Z,61.3652
2018-06-25T00:52:30.132Z,60.3611
2018-06-25T00:53:35.285Z,60.6122
2018-06-25T00:54:40.427Z,60.3611
2018-06-25T00:55:45.600Z,62.0337
2018-06-25T00:56:50.476Z,61.6162
2018-06-25T00:57:56.172Z,61.3652
2018-06-25T00:59:01.379Z,61.6162
2018-06-25T01:00:06.552Z,62.4539
2018-06-25T01:01:12.079Z,61.6162
2018-06-25T01:02:16.954Z,60.3611
2018-06-25T01:03:21.863Z,60.8632
2018-06-25T01:04:41.921Z,60.8632
2018-06-25T01:05:47.094Z,60.8632
2018-06-25T01:06:52.509Z,61.1142
2018-06-25T01:07:57.970Z,60.8632
2018-06-25T01:09:02.296Z,61.3652
2018-06-25T01:10:07.297Z,61.1142
2018-06-25T01:11:12.742Z,60.1075
2018-06-25T01:12:17.624Z,61.3652
2018-06-25T01:13:23.411Z,60.6122
2018-06-25T01:14:28.042Z,60.1075
2018-06-25T01:15:33.561Z,60.1075
2018-06-25T01:16:38.998Z,60.3611
2018-06-25T01:17:44.170Z,61.1142
2018-06-25T01:18:48.849Z,60.1075
2018-06-25T01:19:54.023Z,60.6122
2018-06-25T01:20:59.462Z,60.8632
2018-06-25T01:22:04.598Z,61.1142
2018-06-25T01:23:09.745Z,61.3652
2018-06-25T01:24:14.898Z,61.6162
2018-06-25T01:25:19.749Z,61.6162
2018-06-25T01:26:24.911Z,61.6162
2018-06-25T01:27:30.727Z,61.1142
2018-06-25T01:28:36.182Z,62.2847
2018-06-25T01:29:40.869Z,61.3652
2018-06-25T01:30:46.699Z,62.0337
2018-06-25T01:31:51.860Z,61.1142
2018-06-25T01:32:56.747Z,61.1142
2018-06-25T01:34:02.321Z,61.3652
2018-06-25T01:35:07.466Z,62.5358
2018-06-25T01:36:12.923Z,62.2847
2018-06-25T01:37:18.432Z,62.0337
2018-06-25T01:38:23.588Z,62.4539
2018-06-25T01:39:29.248Z,62.0337
2018-06-25T01:40:34.452Z,62.7049
2018-06-25T01:41:39.608Z,61.3652
2018-06-25T01:42:45.297Z,62.0337
2018-06-25T01:43:50.460Z,62.2847
2018-06-25T01:44:55.636Z,61.6162
2018-06-25T01:46:01.144Z,62.0337
2018-06-25T01:47:06.053Z,62.5358
2018-06-25T01:48:11.247Z,62.0337
2018-06-25T01:49:16.670Z,62.0337
2018-06-25T01:50:21.833Z,62.7049
2018-06-25T01:51:42.049Z,62.4539
2018-06-25T01:52:47.218Z,62.9559
2018-06-25T01:53:52.667Z,63.2069
2018-06-25T01:54:58.220Z,62.2847
2018-06-25T01:56:02.830Z,62.7049
2018-06-25T01:57:08.006Z,62.9559
2018-06-25T01:58:13.571Z,62.7049
2018-06-25T01:59:19.007Z,62.7049
2018-06-25T02:00:24.464Z,63.2069
2018-06-25T02:01:44.519Z,62.4539
2018-06-25T02:02:49.687Z,62.0337
2018-06-25T02:03:54.813Z,62.9559
2018-06-25T02:04:59.983Z,62.7049
2018-06-25T02:06:05.453Z,62.7049
2018-06-25T02:07:10.884Z,62.0337
2018-06-25T02:08:16.047Z,61.6162
2018-06-25T02:09:20.632Z,62.2847
2018-06-25T02:10:26.333Z,62.7049
2018-06-25T02:11:31.213Z,62.5358
2018-06-25T02:12:37.049Z,62.0337
2018-06-25T02:13:42.228Z,62.9559
2018-06-25T02:14:47.699Z,62.0337
2018-06-25T02:15:53.220Z,62.5358
2018-06-25T02:16:58.404Z,62.2847
2018-06-25T02:18:03.561Z,62.9559
2018-06-25T02:19:08.727Z,62.7049
2018-06-25T02:20:14.171Z,62.9559
2018-06-25T02:21:19.335Z,63.2069
2018-06-25T02:22:24.872Z,63.4579
2018-06-25T02:23:30.036Z,62.7049
2018-06-25T02:24:35.742Z,62.7049
2018-06-25T02:25:41.180Z,62.9559
2018-06-25T02:26:46.049Z,62.7049
2018-06-25T02:27:52.113Z,62.7049
2018-06-25T02:28:56.997Z,62.7049
2018-06-25T02:30:01.891Z,62.2847
2018-06-25T02:31:07.319Z,63.2069
2018-06-25T02:32:12.476Z,62.9559
2018-06-25T02:33:17.934Z,63.4579
2018-06-25T02:34:22.768Z,62.4539
2018-06-25T02:35:28.230Z,62.9559
2018-06-25T02:36:33.028Z,62.7049
2018-06-25T02:37:38.467Z,61.6162
2018-06-25T02:38:44.098Z,62.2847
2018-06-25T02:39:50.205Z,62.5358
2018-06-25T02:40:55.084Z,62.5358
2018-06-25T02:42:00.549Z,62.4539
2018-06-25T02:43:06.257Z,62.4539
2018-06-25T02:44:11.428Z,63.2069
2018-06-25T02:45:16.580Z,62.2847
2018-06-25T02:46:21.742Z,62.9559
2018-06-25T02:47:27.186Z,63.2069
2018-06-25T02:48:33.192Z,62.4539
2018-06-25T02:49:38.666Z,62.0337
2018-06-25T02:50:43.546Z,62.2847
2018-06-25T02:51:48.957Z,61.1142
2018-06-25T02:52:54.402Z,61.3652
2018-06-25T02:53:59.553Z,61.3652
2018-06-25T02:55:04.837Z,62.0337
2018-06-25T02:56:09.733Z,61.6162
2018-06-25T02:57:15.194Z,62.0337
2018-06-25T02:58:21.033Z,61.1142
2018-06-25T02:59:25.913Z,60.8632
2018-06-25T03:00:30.922Z,62.0337
2018-06-25T03:01:36.364Z,60.6122
2018-06-25T03:02:41.841Z,59.69
2018-06-25T03:03:47.111Z,60.8632
2018-06-25T03:04:52.547Z,60.3611
2018-06-25T03:05:57.994Z,59.941
2018-06-25T03:07:03.786Z,59.941
2018-06-25T03:08:08.938Z,59.69
2018-06-25T03:09:14.110Z,60.1075
2018-06-25T03:10:19.847Z,59.69
2018-06-25T03:11:25.043Z,59.188
2018-06-25T03:12:31.041Z,59.439
2018-06-25T03:13:36.227Z,59.188
2018-06-25T03:14:41.100Z,58.9369
2018-06-25T03:15:46.226Z,59.69
2018-06-25T03:16:51.412Z,59.188
2018-06-25T03:17:56.850Z,59.188
2018-06-25T03:19:01.414Z,59.439
2018-06-25T03:20:06.293Z,59.69
2018-06-25T03:21:11.473Z,59.439
2018-06-25T03:22:17.273Z,59.439
2018-06-25T03:23:22.171Z,59.188
2018-06-25T03:24:42.287Z,59.69
2018-06-25T03:25:47.455Z,59.439
2018-06-25T03:26:52.616Z,59.941
2018-06-25T03:27:58.459Z,59.188
2018-06-25T03:29:03.621Z,59.188
2018-06-25T03:30:08.796Z,58.6859
2018-06-25T03:31:13.965Z,58.9369
2018-06-25T03:32:18.866Z,58.6859
2018-06-25T03:33:24.323Z,58.4349
2018-06-25T03:34:30.025Z,58.1839
2018-06-25T03:35:34.904Z,58.4349
2018-06-25T03:36:40.198Z,57.5127
2018-06-25T03:37:45.642Z,58.6859
2018-06-25T03:38:50.820Z,58.4349
2018-06-25T03:39:56.384Z,57.5127
2018-06-25T03:41:01.548Z,57.7637
2018-06-25T03:42:06.427Z,58.4349
2018-06-25T03:43:12.495Z,57.9328
2018-06-25T03:44:17.420Z,57.9328
2018-06-25T03:45:22.899Z,58.1839
2018-06-25T03:46:28.763Z,57.9328
2018-06-25T03:47:34.197Z,58.4349
2018-06-25T03:48:39.788Z,57.2617
2018-06-25T03:49:45.240Z,57.0107
2018-06-25T03:50:50.131Z,56.7597
2018-06-25T03:51:55.546Z,57.5127
2018-06-25T03:53:00.733Z,57.2617
2018-06-25T03:54:05.620Z,56.0066
2018-06-25T03:55:11.339Z,56.2576
2018-06-25T03:56:16.778Z,57.0107
2018-06-25T03:57:21.697Z,56.7597
2018-06-25T03:58:27.216Z,56.5086
2018-06-25T03:59:32.660Z,56.5086
2018-06-25T04:00:38.607Z,57.0107
2018-06-25T04:01:44.060Z,56.7597
2018-06-25T04:02:49.224Z,56.7597
2018-06-25T04:03:54.889Z,56.2576
2018-06-25T04:05:00.059Z,57.5127
2018-06-25T04:06:04.670Z,57.0107
2018-06-25T04:07:09.499Z,56.2576
2018-06-25T04:08:14.947Z,57.2617
2018-06-25T04:09:20.108Z,57.5127
2018-06-25T04:10:25.796Z,56.2576
2018-06-25T04:11:30.689Z,56.2576
2018-06-25T04:12:35.269Z,57.0107
2018-06-25T04:13:40.170Z,57.0107
2018-06-25T04:14:45.631Z,56.2576
2018-06-25T04:15:51.639Z,56.7597
2018-06-25T04:16:57.075Z,57.0107
2018-06-25T04:18:02.290Z,57.0107
2018-06-25T04:19:07.550Z,57.5127
2018-06-25T04:20:12.991Z,56.7597
2018-06-25T04:21:17.572Z,57.0107
2018-06-25T04:22:22.517Z,57.5127
2018-06-25T04:23:27.700Z,57.0107
2018-06-25T04:24:32.700Z,56.7597
2018-06-25T04:25:37.578Z,57.0107
2018-06-25T04:26:42.188Z,56.2576
2018-06-25T04:27:47.973Z,55.8401
2018-06-25T04:28:53.421Z,56.2576
2018-06-25T04:29:58.303Z,57.0107
2018-06-25T04:31:03.560Z,56.2576
2018-06-25T04:32:08.994Z,56.7597
2018-06-25T04:33:14.444Z,56.7597
2018-06-25T04:34:19.621Z,57.2617
2018-06-25T04:35:25.054Z,56.5086
2018-06-25T04:36:30.854Z,56.2576
2018-06-25T04:37:36.008Z,55.8401
2018-06-25T04:38:41.164Z,55.6737
2018-06-25T04:39:46.575Z,56.5086
2018-06-25T04:40:51.738Z,56.2576
2018-06-25T04:41:56.361Z,56.5086
2018-06-25T04:43:01.786Z,56.2576
2018-06-25T04:44:06.969Z,56.0066
2018-06-25T04:45:11.866Z,55.169
2018-06-25T04:46:17.424Z,56.5086
2018-06-25T04:47:22.867Z,55.8401
2018-06-25T04:48:28.238Z,55.4226
2018-06-25T04:49:33.443Z,56.5086
2018-06-25T04:50:39.378Z,55.6737
2018-06-25T04:51:44.601Z,55.4226
2018-06-25T04:52:49.775Z,55.8401
2018-06-25T04:53:54.087Z,57.0107
2018-06-25T04:54:59.489Z,55.6737
2018-06-25T04:56:04.090Z,56.2576
2018-06-25T04:57:09.552Z,55.4226
2018-06-25T04:58:15.348Z,55.922
2018-06-25T04:59:20.805Z,57.0107
2018-06-25T05:00:41.160Z,56.2576
2018-06-25T05:01:46.325Z,56.0066
2018-06-25T05:02:51.763Z,56.2576
2018-06-25T05:03:57.613Z,56.2576
2018-06-25T05:05:01.952Z,56.0066
2018-06-25T05:06:06.555Z,55.922
2018-06-25T05:07:11.785Z,55.4226
2018-06-25T05:08:16.378Z,55.6737
2018-06-25T05:09:21.845Z,55.4226
2018-06-25T05:10:28.074Z,54.4159
2018-06-25T05:11:33.265Z,55.169
2018-06-25T05:12:39.105Z,54.918
2018-06-25T05:13:43.988Z,55.169
2018-06-25T05:14:49.144Z,55.4226
2018-06-25T05:15:54.965Z,54.918
2018-06-25T05:17:00.127Z,54.4159
2018-06-25T05:18:05.271Z,55.4226
2018-06-25T05:19:10.681Z,55.4226
2018-06-25T05:20:16.120Z,53.9165
2018-06-25T05:21:20.721Z,55.922
2018-06-25T05:22:26.135Z,55.6737
2018-06-25T05:23:31.658Z,55.4226
2018-06-25T05:24:36.957Z,55.922
2018-06-25T05:25:42.130Z,56.0066
2018-06-25T05:26:47.276Z,55.4226
2018-06-25T05:27:53.189Z,55.4226
2018-06-25T05:28:58.120Z,55.4226
2018-06-25T05:30:03.314Z,55.4226
2018-06-25T05:31:09.004Z,55.169
2018-06-25T05:32:14.166Z,54.918
2018-06-25T05:33:19.607Z,54.4159
2018-06-25T05:34:25.026Z,55.169
2018-06-25T05:35:30.226Z,54.918
2018-06-25T05:36:35.612Z,55.922
2018-06-25T05:37:40.485Z,55.4226
2018-06-25T05:38:45.651Z,54.1649
2018-06-25T05:39:51.522Z,54.4159
2018-06-25T05:40:56.968Z,54.4159
2018-06-25T05:42:02.150Z,54.4159
2018-06-25T05:43:07.563Z,54.4159
2018-06-25T05:44:12.743Z,54.4159
2018-06-25T05:45:17.932Z,54.4159
2018-06-25T05:46:23.736Z,54.1649
2018-06-25T05:47:28.619Z,54.4159
2018-06-25T05:48:34.330Z,54.4159
2018-06-25T05:49:39.781Z,53.6629
2018-06-25T05:50:44.699Z,52.4923
2018-06-25T05:51:50.385Z,52.7433
2018-06-25T05:52:54.980Z,53.4118
2018-06-25T05:54:00.140Z,53.4118
2018-06-25T05:55:05.276Z,52.7433
2018-06-25T05:56:10.154Z,52.9944
2018-06-25T05:57:15.325Z,53.2454
2018-06-25T05:58:20.748Z,54.4159
2018-06-25T05:59:25.344Z,52.4923
2018-06-25T06:00:30.954Z,53.4118
2018-06-25T06:01:36.101Z,52.9944
2018-06-25T06:02:41.546Z,52.7433
2018-06-25T06:03:46.385Z,51.7393
2018-06-25T06:04:51.555Z,51.9903
2018-06-25T06:05:56.989Z,52.2413
2018-06-25T06:07:02.111Z,51.9903
2018-06-25T06:08:07.270Z,52.4923
2018-06-25T06:09:12.453Z,52.4923
2018-06-25T06:10:18.383Z,51.9903
2018-06-25T06:11:23.828Z,51.7393
2018-06-25T06:12:28.881Z,51.4882
2018-06-25T06:13:34.333Z,53.4118
2018-06-25T06:14:39.776Z,51.9903
2018-06-25T06:15:45.472Z,52.2413
2018-06-25T06:16:50.086Z,52.4923
2018-06-25T06:17:55.501Z,52.4923
2018-06-25T06:19:01.306Z,52.4923
2018-06-25T06:20:05.899Z,51.9903
2018-06-25T06:21:10.497Z,52.2413
2018-06-25T06:22:15.900Z,52.2413
2018-06-25T06:23:21.071Z,51.4882
2018-06-25T06:24:26.654Z,51.9903
2018-06-25T06:25:31.870Z,52.4923
2018-06-25T06:26:37.028Z,51.7393
2018-06-25T06:27:42.740Z,51.9903
2018-06-25T06:28:47.915Z,50.9862
2018-06-25T06:29:52.797Z,51.4882
2018-06-25T06:30:58.030Z,51.2372
2018-06-25T06:32:03.599Z,51.9903
2018-06-25T06:33:09.201Z,51.9903
2018-06-25T06:34:14.706Z,51.7393
2018-06-25T06:35:19.873Z,51.4882
2018-06-25T06:37:45.487Z,51.4882
2018-06-25T06:38:50.934Z,52.4923
2018-06-25T06:39:56.732Z,51.7393
2018-06-25T06:41:02.092Z,52.2413
2018-06-25T06:42:06.420Z,51.4882
2018-06-25T06:43:11.891Z,50.8197
2018-06-25T06:44:17.332Z,51.7393
2018-06-25T06:45:22.669Z,51.4882
2018-06-25T06:46:28.349Z,51.4882
2018-06-25T06:47:33.791Z,51.4882
2018-06-25T06:48:39.486Z,50.5687
2018-06-25T06:49:44.648Z,50.5687
2018-06-25T06:50:50.099Z,50.5687
2018-06-25T06:51:55.622Z,50.7352
2018-06-25T06:53:00.774Z,50.9862
2018-06-25T06:54:05.111Z,50.7352
2018-06-25T06:55:10.814Z,50.3177
2018-06-25T06:56:15.416Z,50.7352
2018-06-25T06:57:20.572Z,50.3177
2018-06-25T06:58:25.688Z,50.5687
2018-06-25T06:59:31.154Z,50.0667
2018-06-25T07:00:36.692Z,50.0667
2018-06-25T07:01:41.571Z,49.8156
2018-06-25T07:02:46.736Z,49.8156
2018-06-25T07:03:52.261Z,50.0667
2018-06-25T07:04:57.708Z,51.2372
2018-06-25T07:06:02.319Z,50.3177
2018-06-25T07:07:07.453Z,49.5646
2018-06-25T07:08:12.337Z,49.0626
2018-06-25T07:09:17.494Z,49.3136
2018-06-25T07:10:23.665Z,49.8156
2018-06-25T07:11:29.233Z,50.0667
2018-06-25T07:12:34.640Z,49.5646
2018-06-25T07:13:39.822Z,49.5646
2018-06-25T07:14:45.011Z,49.8156
2018-06-25T07:15:50.848Z,49.8156
2018-06-25T07:16:56.491Z,49.3136
2018-06-25T07:18:01.964Z,50.3177
2018-06-25T07:19:06.645Z,49.5646
2018-06-25T07:20:12.298Z,50.0667
2018-06-25T07:21:17.479Z,49.8156
2018-06-25T07:22:23.090Z,49.8156
2018-06-25T07:23:27.977Z,50.0667
2018-06-25T07:24:33.684Z,49.8156
2018-06-25T07:25:39.131Z,49.8156
2018-06-25T07:26:44.579Z,49.3136
2018-06-25T07:27:49.976Z,49.8156
2018-06-25T07:28:55.791Z,49.5646
2018-06-25T07:30:01.227Z,49.0626
2018-06-25T07:31:06.492Z,48.3095
2018-06-25T07:32:11.352Z,49.0626
2018-06-25T07:33:15.685Z,50.0667
2018-06-25T07:34:20.968Z,49.8156
2018-06-25T07:35:26.126Z,49.3136
2018-06-25T07:36:31.664Z,49.8156
2018-06-25T07:37:36.849Z,49.0626
2018-06-25T07:38:41.158Z,49.3136
2018-06-25T07:39:46.853Z,49.3136
2018-06-25T07:40:51.928Z,49.8156
2018-06-25T07:41:57.365Z,49.3136
2018-06-25T07:43:02.593Z,48.8116
2018-06-25T07:44:07.771Z,49.3136
2018-06-25T07:45:13.226Z,50.0667
2018-06-25T07:46:18.670Z,49.5646
2018-06-25T07:47:24.577Z,49.5646
2018-06-25T07:48:30.265Z,50.3177
2018-06-25T07:49:35.425Z,50.0667
2018-06-25T07:50:40.314Z,49.8156
2018-06-25T07:51:45.730Z,49.3136
2018-06-25T07:52:50.611Z,49.3136
2018-06-25T07:53:56.046Z,49.5646
2018-06-25T07:55:01.473Z,48.5605
2018-06-25T07:56:06.669Z,49.8156
2018-06-25T07:57:11.826Z,50.0667
2018-06-25T07:58:16.805Z,49.0626
2018-06-25T07:59:22.279Z,48.8116
2018-06-25T08:00:27.963Z,49.3136
2018-06-25T08:01:33.407Z,49.3136
2018-06-25T08:02:38.640Z,49.0626
2018-06-25T08:03:44.700Z,48.8116
2018-06-25T08:04:50.001Z,48.8116
2018-06-25T08:05:55.159Z,48.8116
2018-06-25T08:07:00.573Z,49.3136
2018-06-25T08:08:05.763Z,49.8156
2018-06-25T08:09:11.083Z,48.8116
2018-06-25T08:10:17.027Z,49.3136
2018-06-25T08:11:22.367Z,49.0626
2018-06-25T08:12:27.936Z,49.5646
2018-06-25T08:13:33.083Z,49.0626
2018-06-25T08:14:37.957Z,48.8116
2018-06-25T08:15:43.755Z,49.3136
2018-06-25T08:16:48.909Z,47.8075
2018-06-25T08:17:54.301Z,48.3095
2018-06-25T08:18:59.492Z,47.641
2018-06-25T08:20:03.814Z,48.3095
2018-06-25T08:21:08.996Z,47.892
2018-06-25T08:22:14.404Z,48.0585
2018-06-25T08:23:19.569Z,47.39
2018-06-25T08:24:39.734Z,47.39
2018-06-25T08:25:44.623Z,47.892
2018-06-25T08:26:49.491Z,47.641
2018-06-25T08:27:55.177Z,47.641
2018-06-25T08:29:00.832Z,47.139
2018-06-25T08:30:06.137Z,47.39
2018-06-25T08:31:11.893Z,46.6369
2018-06-25T08:32:17.057Z,47.139
2018-06-25T08:33:21.929Z,46.3886
2018-06-25T08:34:29.256Z,46.888
2018-06-25T08:35:35.053Z,46.6369
2018-06-25T08:36:39.941Z,46.6369
2018-06-25T08:37:45.394Z,46.1375
2018-06-25T08:38:50.864Z,47.139
2018-06-25T08:39:56.766Z,46.1375
2018-06-25T08:41:01.682Z,45.3845
2018-06-25T08:42:06.853Z,46.1375
2018-06-25T08:43:12.696Z,45.6355
2018-06-25T08:44:17.870Z,46.3886
2018-06-25T08:45:23.033Z,45.8865
2018-06-25T08:46:28.893Z,46.3886
2018-06-25T08:47:34.062Z,45.6355
2018-06-25T08:48:39.316Z,45.8865
2018-06-25T08:49:44.193Z,45.8865
2018-06-25T08:50:49.970Z,45.8865
2018-06-25T08:51:55.576Z,45.3845
2018-06-25T08:53:01.216Z,45.6355
2018-06-25T08:54:05.811Z,45.3845
2018-06-25T08:55:11.460Z,45.8865
2018-06-25T08:56:16.911Z,45.4664
2018-06-25T08:57:22.072Z,45.6355
2018-06-25T08:58:27.685Z,45.3845
2018-06-25T08:59:32.561Z,45.8865
2018-06-25T09:00:38.702Z,45.2154
2018-06-25T09:01:43.304Z,44.967
2018-06-25T09:02:48.464Z,44.967
2018-06-25T09:03:54.179Z,45.3845
2018-06-25T09:04:59.344Z,44.967
2018-06-25T09:06:04.528Z,44.967
2018-06-25T09:07:10.195Z,44.716
2018-06-25T09:08:15.643Z,44.716
2018-06-25T09:09:20.561Z,45.3845
2018-06-25T09:10:25.152Z,44.0448
2018-06-25T09:11:30.607Z,44.4649
2018-06-25T09:12:36.484Z,44.0448
2018-06-25T09:13:41.064Z,44.716
2018-06-25T09:14:46.506Z,43.5454
2018-06-25T09:15:52.203Z,43.5454
2018-06-25T09:16:57.066Z,43.7964
2018-06-25T09:18:02.244Z,44.2139
2018-06-25T09:19:06.657Z,44.0448
2018-06-25T09:20:11.819Z,44.2139
2018-06-25T09:21:17.476Z,44.0448
2018-06-25T09:22:23.169Z,44.2139
2018-06-25T09:23:28.336Z,43.5454
2018-06-25T09:24:33.741Z,43.7964
2018-06-25T09:25:39.195Z,44.2139
2018-06-25T09:26:44.656Z,44.0448
2018-06-25T09:27:51.113Z,43.5454
2018-06-25T09:28:56.548Z,43.7964
2018-06-25T09:30:02.005Z,44.0448
2018-06-25T09:31:06.719Z,44.2139
2018-06-25T09:32:11.912Z,43.5454
2018-06-25T09:33:16.807Z,44.2139
2018-06-25T09:34:22.235Z,44.0448
2018-06-25T09:35:27.683Z,44.716
2018-06-25T09:36:32.814Z,44.4649
2018-06-25T09:37:38.278Z,44.4649
2018-06-25T09:38:43.440Z,44.716
2018-06-25T09:39:49.416Z,44.4649
2018-06-25T09:40:54.893Z,44.4649
2018-06-25T09:42:00.205Z,45.3845
2018-06-25T09:43:05.330Z,44.8824
2018-06-25T09:44:10.200Z,44.716
2018-06-25T09:45:15.402Z,44.8824
2018-06-25T09:46:20.291Z,44.8824
2018-06-25T09:47:25.603Z,44.8824
2018-06-25T09:48:30.735Z,45.8865
2018-06-25T09:49:36.174Z,44.8824
2018-06-25T09:50:41.348Z,45.3845
2018-06-25T09:51:46.475Z,45.1335
2018-06-25T09:52:51.647Z,45.3845
2018-06-25T09:53:57.100Z,45.3845
2018-06-25T09:55:02.295Z,44.2139
2018-06-25T09:56:06.905Z,45.8865
2018-06-25T09:57:12.424Z,45.1335
2018-06-25T09:58:17.955Z,45.8865
2018-06-25T09:59:23.398Z,45.3845
2018-06-25T10:00:29.124Z,45.6355
2018-06-25T10:01:33.713Z,45.1335
2018-06-25T10:02:38.593Z,44.967
2018-06-25T10:03:43.737Z,45.3845
2018-06-25T10:04:48.922Z,45.3845
2018-06-25T10:05:53.529Z,45.1335
2018-06-25T10:06:59.353Z,45.3845
2018-06-25T10:08:03.948Z,44.967
2018-06-25T10:09:09.107Z,44.716
2018-06-25T10:10:14.906Z,44.967
2018-06-25T10:11:20.067Z,45.1335
2018-06-25T10:12:25.399Z,44.0448
2018-06-25T10:13:30.567Z,45.6355
2018-06-25T10:14:35.722Z,43.7964
2018-06-25T10:15:41.134Z,44.4649
2018-06-25T10:16:46.787Z,44.4649
2018-06-25T10:17:51.951Z,45.1335
2018-06-25T10:18:57.692Z,44.2139
2018-06-25T10:20:02.891Z,44.2139
2018-06-25T10:21:07.211Z,45.3845
2018-06-25T10:22:12.355Z,44.2139
2018-06-25T10:23:17.605Z,44.4649
2018-06-25T10:24:23.055Z,44.8824
2018-06-25T10:25:28.574Z,45.1335
2018-06-25T10:26:33.708Z,44.8824
2018-06-25T10:27:39.403Z,44.716
2018-06-25T10:28:44.852Z,44.0448
2018-06-25T10:29:50.306Z,45.1335
2018-06-25T10:30:55.539Z,45.3845
2018-06-25T10:32:00.448Z,45.3845
2018-06-25T10:33:05.619Z,45.6355
2018-06-25T10:34:11.027Z,44.716
2018-06-25T10:35:15.822Z,45.1335
2018-06-25T10:36:21.278Z,45.3845
2018-06-25T10:37:26.598Z,44.4649
2018-06-25T10:38:32.048Z,44.8824
2018-06-25T10:39:37.474Z,45.6355
2018-06-25T10:40:42.675Z,45.6355
2018-06-25T10:41:48.102Z,45.1335
2018-06-25T10:42:52.848Z,45.3845
2018-06-25T10:43:58.006Z,46.3886
2018-06-25T10:45:02.339Z,45.3845
2018-06-25T10:46:07.478Z,45.3845
2018-06-25T10:47:12.647Z,45.6355
2018-06-25T10:48:17.816Z,45.1335
2018-06-25T10:49:23.868Z,44.8824
2018-06-25T10:50:29.406Z,44.8824
2018-06-25T10:51:34.825Z,45.3845
2018-06-25T10:52:40.008Z,44.8824
2018-06-25T10:53:44.618Z,44.6314
2018-06-25T10:54:49.467Z,44.8824
2018-06-25T10:55:54.913Z,44.6314
2018-06-25T10:57:00.285Z,44.6314
2018-06-25T10:58:05.369Z,44.8824
2018-06-25T10:59:10.649Z,44.6314
2018-06-25T11:00:17.988Z,44.8824
2018-06-25T11:01:24.321Z,44.8824
2018-06-25T11:02:29.407Z,45.6355
2018-06-25T11:03:35.165Z,45.1335
2018-06-25T11:04:40.036Z,45.6355
2018-06-25T11:05:45.269Z,44.8824
2018-06-25T11:06:50.875Z,44.8824
2018-06-25T11:07:56.057Z,45.6355
2018-06-25T11:09:01.499Z,45.6355
2018-06-25T11:10:07.025Z,45.6355
2018-06-25T11:11:12.472Z,45.3845
2018-06-25T11:12:17.664Z,45.6355
2018-06-25T11:13:23.119Z,45.1335
2018-06-25T11:14:27.723Z,44.6314
2018-06-25T11:15:32.854Z,45.3845
2018-06-25T11:16:38.496Z,44.8824
2018-06-25T11:17:44.147Z,43.7964
2018-06-25T11:18:49.569Z,45.3845
2018-06-25T11:19:54.674Z,44.3804
2018-06-25T11:20:59.830Z,44.6314
2018-06-25T11:22:05.243Z,45.1335
2018-06-25T11:23:10.697Z,44.8824
2018-06-25T11:24:15.544Z,45.1335
2018-06-25T11:25:20.966Z,45.1335
2018-06-25T11:26:25.879Z,45.3845
2018-06-25T11:27:31.825Z,44.8824
2018-06-25T11:28:36.952Z,45.8865
2018-06-25T11:29:42.101Z,44.6314
2018-06-25T11:30:47.805Z,44.8824
2018-06-25T11:31:53.270Z,45.1335
2018-06-25T11:32:58.142Z,44.6314
2018-06-25T11:34:03.420Z,45.1335
2018-06-25T11:35:08.883Z,45.1335
2018-06-25T11:36:14.550Z,45.1335
2018-06-25T11:37:20.161Z,45.1335
2018-06-25T11:38:25.348Z,45.3845
2018-06-25T11:39:30.630Z,45.3845
2018-06-25T11:40:35.502Z,45.1335
2018-06-25T11:41:40.381Z,46.1375
2018-06-25T11:42:45.745Z,45.8865
2018-06-25T11:43:51.188Z,45.1335
2018-06-25T11:44:56.083Z,44.8824
2018-06-25T11:46:02.094Z,45.1335
2018-06-25T11:47:07.302Z,45.6355
2018-06-25T11:48:12.751Z,45.6355
2018-06-25T11:49:18.446Z,45.1335
2018-06-25T11:50:23.630Z,45.8865
2018-06-25T11:51:29.522Z,45.6355
2018-06-25T11:52:34.681Z,45.3845
2018-06-25T11:53:39.272Z,45.8865
2018-06-25T11:54:44.829Z,45.6355
2018-06-25T11:55:50.317Z,44.3804
2018-06-25T11:56:55.523Z,45.8865
2018-06-25T11:58:01.219Z,45.3845
2018-06-25T11:59:06.423Z,46.1375
2018-06-25T12:00:11.804Z,45.1335
2018-06-25T12:01:17.417Z,45.3845
2018-06-25T12:02:22.682Z,45.8865
2018-06-25T12:03:30.038Z,44.8824
2018-06-25T12:04:34.931Z,46.1375
2018-06-25T12:05:40.093Z,44.6314
2018-06-25T12:06:45.603Z,46.1375
2018-06-25T12:07:51.067Z,45.6355
2018-06-25T12:08:56.713Z,45.6355
2018-06-25T12:10:02.414Z,46.1375
2018-06-25T12:11:07.592Z,45.3845
2018-06-25T12:12:13.250Z,45.3845
2018-06-25T12:13:18.831Z,45.6355
2018-06-25T12:14:24.266Z,45.1335
2018-06-25T12:15:30.124Z,44.6314
2018-06-25T12:16:35.038Z,45.1335
2018-06-25T12:17:39.817Z,44.2139
2018-06-25T12:18:44.209Z,44.3804
2018-06-25T12:19:49.291Z,44.6314
2018-06-25T12:20:54.336Z,44.6314
2018-06-25T12:21:59.631Z,45.3845
2018-06-25T12:23:05.020Z,45.1335
2018-06-25T12:24:10.510Z,44.0448
2018-06-25T12:25:16.025Z,44.2139
2018-06-25T12:26:21.674Z,44.2139
2018-06-25T12:27:27.627Z,43.7964
2018-06-25T12:28:32.800Z,44.0448
2018-06-25T12:29:37.973Z,44.1294
2018-06-25T12:30:43.665Z,44.0448
2018-06-25T12:31:49.124Z,43.2944
2018-06-25T12:32:54.287Z,44.3804
2018-06-25T12:33:59.520Z,44.6314
2018-06-25T12:35:04.930Z,44.6314
2018-06-25T12:36:09.544Z,45.1335
2018-06-25T12:37:15.529Z,43.7964
2018-06-25T12:38:20.703Z,44.3804
2018-06-25T12:39:40.822Z,44.2139
2018-06-25T12:40:46.286Z,44.0448
2018-06-25T12:41:51.439Z,44.0448
2018-06-25T12:42:56.290Z,44.0448
2018-06-25T12:44:01.185Z,44.0448
2018-06-25T12:45:06.341Z,44.3804
2018-06-25T12:46:11.767Z,44.0448
2018-06-25T12:47:16.944Z,43.5454
2018-06-25T12:48:21.999Z,43.2944
2018-06-25T12:49:27.474Z,43.5454
2018-06-25T12:50:32.927Z,43.2944
2018-06-25T12:51:38.614Z,43.2944
2018-06-25T12:52:43.778Z,43.7964
2018-06-25T12:53:49.293Z,43.0434
2018-06-25T12:54:53.882Z,43.7964
2018-06-25T12:55:59.333Z,43.0434
2018-06-25T12:57:04.557Z,42.7924
2018-06-25T12:58:10.492Z,44.0448
2018-06-25T12:59:16.011Z,42.5413
2018-06-25T13:00:21.602Z,42.5413
2018-06-25T13:01:27.140Z,42.7924
2018-06-25T13:02:32.469Z,43.0434
2018-06-25T13:03:38.166Z,43.2944
2018-06-25T13:04:43.629Z,44.0448
2018-06-25T13:05:49.065Z,43.0434
2018-06-25T13:06:54.856Z,43.0434
2018-06-25T13:07:59.738Z,42.7924
2018-06-25T13:09:04.970Z,42.5413
2018-06-25T13:10:10.505Z,43.0434
2018-06-25T13:11:15.867Z,42.7924
2018-06-25T13:12:21.040Z,43.0434
2018-06-25T13:13:26.791Z,43.2944
2018-06-25T13:14:32.255Z,43.2944
2018-06-25T13:15:37.679Z,43.0434